EGGD/BRS METAR and TAF weather

Enter ICAO airport designator
Station Type Date Time Source
EGGD METAR 2021/07/30 06:20 UTC NOAA

EGGD 300620Z AUTO 15018G32KT 9999 SCT010/// BKN016/// OVC022/// //////TCU 14/12 Q0995


Station Type Date Time Source
EGGD Decoded METAR 2021/07/30 06:20 UTC NOAA

Bristol / Lulsgate , United Kingdom (EGGD) 51-23N 002-43W
Jul 30, 2021 - 02:20 AM EDT / 2021.07.30 0620 UTC
Wind: from the SSE (150 degrees) at 21 MPH (18 KT) gusting to 37 MPH (32 KT):0
Visibility: greater than 7 mile(s):0
Sky conditions: overcast
Weather: Towering cumulus clouds observed
Temperature: 57 F (14 C)
Dew Point: 53 F (12 C)
Relative Humidity: 87%
Pressure (altimeter): 29.38 in. Hg (0995 hPa)
ob: EGGD 300620Z AUTO 15018G32KT 9999 SCT010/// BKN016/// OVC022/// //////TCU 14/12 Q0995
cycle: 6

Station Type Date Time Source
EGGD TAF 2021/07/30 06:09 UTC NOAA

TAF EGGD 300500Z 3006/3106 16016G28KT 9999 BKN030
TEMPO 3006/3012 6000 RA SHRA BKN012 PROB40
TEMPO 3006/3014 3000 +SHRA BKN006 BKN020CB
BECMG 3007/3010 27018G28KT PROB30
TEMPO 3014/3019 5000 SHRA
BECMG 3015/3018 27010KT PROB30
TEMPO 3100/3106 8000 -SHRA BKN014

Example: see airport list